createdAt,value
2019-01-14T00:00:54.575Z,96462.91
2019-01-14T00:03:21.212Z,96474.22
2019-01-14T00:05:48.221Z,96463.03
2019-01-14T00:08:14.862Z,96473.98
2019-01-14T00:10:42.560Z,96476.80
2019-01-14T00:13:09.571Z,96480.16
2019-01-14T00:15:36.620Z,96483.97
2019-01-14T00:18:03.252Z,96481.77
2019-01-14T00:20:30.370Z,96490.61
2019-01-14T00:22:57.467Z,96488.69
2019-01-14T00:25:24.476Z,96490.27
2019-01-14T00:27:51.069Z,96490.95
2019-01-14T00:30:17.713Z,96502.05
2019-01-14T00:32:44.719Z,96497.38
2019-01-14T00:35:11.773Z,96513.77
2019-01-14T00:37:38.896Z,96519.81
2019-01-14T00:40:05.682Z,96497.48
2019-01-14T00:42:32.293Z,96499.38
2019-01-14T00:44:59.323Z,96512.56
2019-01-14T00:47:26.389Z,96510.92
2019-01-14T00:49:53.436Z,96511.67
2019-01-14T00:52:20.170Z,96517.16
2019-01-14T00:54:47.131Z,96516.85
2019-01-14T00:57:14.179Z,96521.89
2019-01-14T00:59:41.981Z,96519.71
2019-01-14T01:02:09.000Z,96521.66
2019-01-14T01:04:35.957Z,96522.09
2019-01-14T01:07:02.640Z,96518.65
2019-01-14T01:09:29.727Z,96527.87
2019-01-14T01:11:56.748Z,96535.42
2019-01-14T01:14:23.799Z,96537.91
2019-01-14T01:16:50.760Z,96534.38
2019-01-14T01:19:17.399Z,96533.65
2019-01-14T01:21:45.069Z,96537.48
2019-01-14T01:24:12.125Z,96539.30
2019-01-14T01:26:39.158Z,96542.05
2019-01-14T01:29:06.382Z,96546.53
2019-01-14T01:31:34.173Z,96540.32
2019-01-14T01:34:00.812Z,96535.16
2019-01-14T01:36:31.816Z,96537.77
2019-01-14T01:38:56.645Z,96543.42
2019-01-14T01:41:23.711Z,96551.19
2019-01-14T01:43:50.652Z,96540.99
2019-01-14T01:46:17.689Z,96556.37
2019-01-14T01:48:44.268Z,96542.88
2019-01-14T01:51:11.372Z,96557.70
2019-01-14T01:53:38.431Z,96558.83
2019-01-14T01:56:05.530Z,96569.44
2019-01-14T01:58:32.242Z,96567.34
2019-01-14T02:00:59.218Z,96576.62
2019-01-14T02:03:26.204Z,96571.02
2019-01-14T02:05:53.768Z,96562.94
2019-01-14T02:08:20.807Z,96570.98
2019-01-14T02:10:47.852Z,96582.17
2019-01-14T02:13:14.939Z,96566.84
2019-01-14T02:15:41.526Z,96579.52
2019-01-14T02:18:08.147Z,96586.17
2019-01-14T02:20:35.439Z,96566.72
2019-01-14T02:23:02.407Z,96578.42
2019-01-14T02:25:29.053Z,96584.56
2019-01-14T02:27:56.169Z,96570.59
2019-01-14T02:30:23.900Z,96583.66
2019-01-14T02:32:50.470Z,96569.92
2019-01-14T02:35:17.524Z,96564.94
2019-01-14T02:37:45.114Z,96575.61
2019-01-14T02:40:11.672Z,96571.34
2019-01-14T02:42:39.207Z,96572.47
2019-01-14T02:45:06.220Z,96569.28
2019-01-14T02:47:33.275Z,96572.67
2019-01-14T02:50:00.410Z,96578.84
2019-01-14T02:52:27.214Z,96567.95
2019-01-14T02:54:54.313Z,96576.31
2019-01-14T02:57:21.197Z,96585.26
2019-01-14T02:59:47.842Z,96569.41
2019-01-14T03:02:14.424Z,96585.16
2019-01-14T03:04:41.480Z,96588.58
2019-01-14T03:07:08.116Z,96586.56
2019-01-14T03:09:35.161Z,96579.02
2019-01-14T03:12:01.812Z,96592.34
2019-01-14T03:14:28.602Z,96618.69
2019-01-14T03:16:55.594Z,96590.24
2019-01-14T03:19:22.307Z,96592.02
2019-01-14T03:21:48.885Z,96607.42
2019-01-14T03:24:15.915Z,96614.63
2019-01-14T03:26:42.975Z,96612.15
2019-01-14T03:29:10.163Z,96655.37
2019-01-14T03:31:36.790Z,96661.58
2019-01-14T03:34:03.927Z,96652.92
2019-01-14T03:36:30.952Z,96639.82
2019-01-14T03:38:58.212Z,96612.22
2019-01-14T03:41:25.861Z,96636.36
2019-01-14T03:43:52.914Z,96648.17
2019-01-14T03:46:19.965Z,96662.40
2019-01-14T03:48:47.005Z,96661.33
2019-01-14T03:51:14.132Z,96666.48
2019-01-14T03:53:41.099Z,96665.52
2019-01-14T03:56:08.280Z,96666.02
2019-01-14T03:58:35.230Z,96676.83
2019-01-14T04:01:01.813Z,96665.77
2019-01-14T04:03:28.899Z,96658.98
2019-01-14T04:05:55.916Z,96671.16
2019-01-14T04:08:22.507Z,96678.48
2019-01-14T04:10:49.618Z,96685.37
2019-01-14T04:13:16.675Z,96679.66
2019-01-14T04:15:43.719Z,96684.59
2019-01-14T04:18:10.384Z,96697.30
2019-01-14T04:20:37.000Z,96706.92
2019-01-14T04:23:03.925Z,96733.77
2019-01-14T04:25:31.635Z,96709.95
2019-01-14T04:27:59.370Z,96710.27
2019-01-14T04:30:27.062Z,96714.41
2019-01-14T04:32:54.164Z,96738.66
2019-01-14T04:35:20.785Z,96718.59
2019-01-14T04:37:47.746Z,96731.48
2019-01-14T04:40:14.425Z,96740.52
2019-01-14T04:42:41.440Z,96745.95
2019-01-14T04:45:08.513Z,96746.02
2019-01-14T04:47:35.538Z,96758.86
2019-01-14T04:50:02.111Z,96739.42
2019-01-14T04:52:28.749Z,96758.57
2019-01-14T04:54:55.879Z,96754.66
2019-01-14T04:57:22.932Z,96772.27
2019-01-14T04:59:49.500Z,96772.67
2019-01-14T05:02:17.257Z,96786.41
2019-01-14T05:04:45.136Z,96768.12
2019-01-14T05:07:12.122Z,96769.97
2019-01-14T05:09:39.073Z,96768.55
2019-01-14T05:12:06.784Z,96790.57
2019-01-14T05:14:33.777Z,96790.00
2019-01-14T05:17:00.609Z,96788.48
2019-01-14T05:19:27.703Z,96785.52
2019-01-14T05:21:55.236Z,96796.55
2019-01-14T05:24:22.334Z,96797.22
2019-01-14T05:26:48.919Z,96826.33
2019-01-14T05:29:15.973Z,96811.09
2019-01-14T05:31:42.640Z,96816.03
2019-01-14T05:34:09.283Z,96832.08
2019-01-14T05:36:37.071Z,96830.42
2019-01-14T05:39:03.829Z,96836.64
2019-01-14T05:41:30.920Z,96822.48
2019-01-14T05:43:58.448Z,96854.13
2019-01-14T05:46:25.507Z,96842.94
2019-01-14T05:48:52.568Z,96867.38
2019-01-14T05:51:19.551Z,96871.34
2019-01-14T05:53:46.712Z,96859.88
2019-01-14T05:56:13.718Z,96886.09
2019-01-14T05:58:40.773Z,96905.86
2019-01-14T06:01:07.484Z,96884.27
2019-01-14T06:03:34.543Z,96887.61
2019-01-14T06:06:02.326Z,96920.52
2019-01-14T06:08:29.337Z,96906.95
2019-01-14T06:10:55.947Z,96922.94
2019-01-14T06:13:23.712Z,96947.81
2019-01-14T06:15:50.805Z,96930.31
2019-01-14T06:18:17.917Z,96917.69
2019-01-14T06:20:44.792Z,96962.16
2019-01-14T06:23:12.046Z,96951.41
2019-01-14T06:25:39.097Z,96956.98
2019-01-14T06:28:06.879Z,96977.59
2019-01-14T06:30:35.660Z,97015.73
2019-01-14T06:33:03.025Z,97017.64
2019-01-14T06:35:29.657Z,97032.64
2019-01-14T06:37:57.181Z,97037.72
2019-01-14T06:40:24.049Z,97047.78
2019-01-14T06:42:51.101Z,97047.23
2019-01-14T06:45:17.798Z,97055.94
2019-01-14T06:47:45.560Z,97057.11
2019-01-14T06:50:13.317Z,97061.90
2019-01-14T06:52:40.429Z,97069.32
2019-01-14T06:55:08.115Z,97078.58
2019-01-14T06:57:35.822Z,97087.30
2019-01-14T07:00:03.587Z,97087.44
2019-01-14T07:02:31.370Z,97091.58
2019-01-14T07:04:59.151Z,97109.34
2019-01-14T07:07:26.184Z,97105.07
2019-01-14T07:09:53.139Z,97102.89
2019-01-14T07:12:19.747Z,97118.31
2019-01-14T07:14:46.604Z,97121.76
2019-01-14T07:17:13.874Z,97127.28
2019-01-14T07:19:40.762Z,97125.92
2019-01-14T07:22:07.795Z,97122.06
2019-01-14T07:24:35.001Z,97146.85
2019-01-14T07:27:01.644Z,97161.89
2019-01-14T07:29:28.610Z,97165.20
2019-01-14T07:31:55.243Z,97153.23
2019-01-14T07:34:22.212Z,97161.94
2019-01-14T07:36:49.231Z,97161.17
2019-01-14T07:39:16.302Z,97170.72
2019-01-14T07:41:43.950Z,97187.06
2019-01-14T07:44:10.583Z,97207.17
2019-01-14T07:46:37.164Z,97186.71
2019-01-14T07:49:12.757Z,97185.64
2019-01-14T07:51:39.445Z,97198.53
2019-01-14T07:54:06.095Z,97209.45
2019-01-14T07:56:32.696Z,97208.31
2019-01-14T07:58:59.757Z,97197.50
2019-01-14T08:01:26.705Z,97189.75
2019-01-14T08:03:53.603Z,97196.63
2019-01-14T08:06:20.441Z,97194.14
2019-01-14T08:08:47.493Z,97191.20
2019-01-14T08:11:14.507Z,97192.62
2019-01-14T08:13:41.211Z,97183.09
2019-01-14T08:16:07.865Z,97189.10
2019-01-14T08:18:34.888Z,97200.73
2019-01-14T08:21:01.580Z,97205.75
2019-01-14T08:23:28.527Z,97212.48
2019-01-14T08:25:56.587Z,97218.31
2019-01-14T08:28:23.221Z,97229.37
2019-01-14T08:30:49.855Z,97207.50
2019-01-14T08:33:17.199Z,97223.04
2019-01-14T08:35:45.171Z,97236.97
2019-01-14T08:38:12.203Z,97238.52
2019-01-14T08:40:40.037Z,97225.89
2019-01-14T08:43:08.047Z,97231.88
2019-01-14T08:45:35.223Z,97231.34
2019-01-14T08:48:02.196Z,97230.39
2019-01-14T08:50:29.342Z,97227.30
2019-01-14T08:52:55.932Z,97233.07
2019-01-14T08:55:23.695Z,97229.70
2019-01-14T08:57:54.599Z,97222.64
2019-01-14T09:00:21.364Z,97245.74
2019-01-14T09:02:48.036Z,97280.66
2019-01-14T09:05:15.218Z,97278.71
2019-01-14T09:07:42.955Z,97275.93
2019-01-14T09:10:10.107Z,97293.77
2019-01-14T09:12:38.864Z,97296.07
2019-01-14T09:15:05.901Z,97292.16
2019-01-14T09:17:32.662Z,97329.23
2019-01-14T09:19:59.676Z,97325.97
2019-01-14T09:22:26.777Z,97327.24
2019-01-14T09:24:53.761Z,97325.45
2019-01-14T09:27:20.798Z,97348.77
2019-01-14T09:29:47.405Z,97336.98
2019-01-14T09:32:14.103Z,97352.02
2019-01-14T09:34:41.254Z,97334.52
2019-01-14T09:37:07.979Z,97354.33
2019-01-14T09:39:34.632Z,97361.22
2019-01-14T09:42:01.340Z,97370.72
2019-01-14T09:44:27.912Z,97388.25
2019-01-14T09:46:54.523Z,97371.00
2019-01-14T09:49:21.430Z,97371.31
2019-01-14T09:51:49.187Z,97362.02
2019-01-14T09:54:15.770Z,97387.66
2019-01-14T09:56:42.825Z,97387.26
2019-01-14T09:59:09.403Z,97393.60
2019-01-14T10:01:36.114Z,97403.55
2019-01-14T10:04:04.002Z,97412.17
2019-01-14T10:06:31.080Z,97384.53
2019-01-14T10:08:58.076Z,97407.51
2019-01-14T10:11:26.599Z,97430.23
2019-01-14T10:13:53.612Z,97399.88
2019-01-14T10:16:20.664Z,97405.81
2019-01-14T10:18:48.130Z,97396.22
2019-01-14T10:21:19.394Z,97404.50
2019-01-14T10:23:46.343Z,97407.88
2019-01-14T10:26:13.313Z,97410.17
2019-01-14T10:28:40.116Z,97414.78
2019-01-14T10:31:07.249Z,97418.88
2019-01-14T10:33:34.389Z,97430.02
2019-01-14T10:36:01.015Z,97433.36
2019-01-14T10:38:27.646Z,97401.22
2019-01-14T10:40:54.319Z,97415.41
2019-01-14T10:43:21.549Z,97423.86
2019-01-14T10:45:48.179Z,97427.86
2019-01-14T10:48:14.817Z,97441.77
2019-01-14T10:50:42.504Z,97430.30
2019-01-14T10:53:09.459Z,97428.27
2019-01-14T10:55:36.711Z,97449.84
2019-01-14T10:58:03.312Z,97439.16
2019-01-14T11:00:30.371Z,97421.06
2019-01-14T11:02:57.066Z,97442.70
2019-01-14T11:05:23.967Z,97464.22
2019-01-14T11:07:50.574Z,97446.77
2019-01-14T11:10:17.644Z,97445.65
2019-01-14T11:12:44.588Z,97447.33
2019-01-14T11:15:11.538Z,97436.78
2019-01-14T11:17:38.634Z,97444.63
2019-01-14T11:20:05.300Z,97447.11
2019-01-14T11:22:32.364Z,97437.77
2019-01-14T11:24:59.411Z,97433.12
2019-01-14T11:27:26.056Z,97444.00
2019-01-14T11:29:53.705Z,97448.06
2019-01-14T11:32:20.798Z,97457.20
2019-01-14T11:34:50.985Z,97448.55
2019-01-14T11:37:17.552Z,97439.15
2019-01-14T11:39:45.835Z,97455.16
2019-01-14T11:42:15.565Z,97443.83
2019-01-14T11:44:42.669Z,97458.45
2019-01-14T11:47:09.391Z,97450.22
2019-01-14T11:49:36.468Z,97456.81
2019-01-14T11:52:04.416Z,97455.67
2019-01-14T11:54:31.441Z,97459.30
2019-01-14T11:56:58.142Z,97457.86
2019-01-14T11:59:25.074Z,97498.63
2019-01-14T12:01:52.144Z,97526.91
2019-01-14T12:04:18.786Z,97522.13
2019-01-14T12:06:45.941Z,97535.42
2019-01-14T12:09:13.033Z,97577.58
2019-01-14T12:11:39.985Z,97599.26
2019-01-14T12:14:07.034Z,97568.08
2019-01-14T12:16:37.988Z,97547.88
2019-01-14T12:19:05.608Z,97522.04
2019-01-14T12:21:32.608Z,97529.11
2019-01-14T12:23:59.928Z,97530.17
2019-01-14T12:26:26.531Z,97531.20
2019-01-14T12:28:53.541Z,97524.09
2019-01-14T12:31:20.456Z,97536.29
2019-01-14T12:33:47.969Z,97519.05
2019-01-14T12:36:14.982Z,97517.52
2019-01-14T12:38:42.002Z,97514.64
2019-01-14T12:41:10.049Z,97518.11
2019-01-14T12:43:36.656Z,97520.34
2019-01-14T12:46:03.288Z,97528.91
2019-01-14T12:48:29.990Z,97535.04
2019-01-14T12:50:57.548Z,97538.08
2019-01-14T12:53:26.575Z,97532.43
2019-01-14T12:55:53.529Z,97539.23
2019-01-14T12:58:21.131Z,97533.28
2019-01-14T13:00:48.153Z,97532.17
2019-01-14T13:03:15.090Z,97530.04
2019-01-14T13:05:41.725Z,97536.30
2019-01-14T13:08:08.373Z,97533.15
2019-01-14T13:10:34.954Z,97548.82
2019-01-14T13:13:01.586Z,97573.02
2019-01-14T13:15:28.303Z,97607.08
2019-01-14T13:17:54.989Z,97619.38
2019-01-14T13:20:21.958Z,97652.66
2019-01-14T13:22:50.155Z,97651.13
2019-01-14T13:25:17.106Z,97665.67
2019-01-14T13:27:49.367Z,97704.28
2019-01-14T13:30:16.364Z,97720.77
2019-01-14T13:32:43.406Z,97710.02
2019-01-14T13:35:10.366Z,97706.58
2019-01-14T13:37:37.026Z,97713.70
2019-01-14T13:40:05.346Z,97722.25
2019-01-14T13:42:31.938Z,97708.09
2019-01-14T13:44:58.928Z,97723.13
2019-01-14T13:47:25.590Z,97705.91
2019-01-14T13:49:52.581Z,97686.77
2019-01-14T13:52:19.727Z,97680.09
2019-01-14T13:54:46.833Z,97686.94
2019-01-14T13:57:13.823Z,97686.23
2019-01-14T13:59:40.844Z,97686.45
2019-01-14T14:02:07.789Z,97688.68
2019-01-14T14:04:34.418Z,97694.16
2019-01-14T14:07:01.410Z,97709.24
2019-01-14T14:09:41.180Z,97698.38
2019-01-14T14:12:05.338Z,97708.05
2019-01-14T14:14:32.280Z,97713.66
2019-01-14T14:16:58.864Z,97726.42
2019-01-14T14:19:25.545Z,97698.44
2019-01-14T14:21:52.462Z,97705.34
2019-01-14T14:24:19.410Z,97704.69
2019-01-14T14:26:46.406Z,97718.51
2019-01-14T14:29:14.467Z,97698.43
2019-01-14T14:31:41.288Z,97712.81
2019-01-14T14:34:08.322Z,97700.80
2019-01-14T14:36:35.285Z,97709.53
2019-01-14T14:39:02.207Z,97710.03
2019-01-14T14:41:29.130Z,97705.02
2019-01-14T14:43:56.143Z,97700.48
2019-01-14T14:46:23.239Z,97703.86
2019-01-14T14:48:50.457Z,97718.38
2019-01-14T14:51:17.394Z,97727.59
2019-01-14T14:53:44.033Z,97728.82
2019-01-14T14:56:11.063Z,97771.22
2019-01-14T14:58:38.081Z,97767.91
2019-01-14T15:01:04.717Z,97813.64
2019-01-14T15:03:34.535Z,97814.00
2019-01-14T15:06:01.180Z,97822.83
2019-01-14T15:08:28.169Z,97804.44
2019-01-14T15:10:55.188Z,97800.36
2019-01-14T15:13:22.137Z,97794.33
2019-01-14T15:15:48.715Z,97777.73
2019-01-14T15:18:15.736Z,97824.52
2019-01-14T15:20:42.733Z,97798.83
2019-01-14T15:23:09.709Z,97787.14
2019-01-14T15:25:36.356Z,97794.23
2019-01-14T15:28:05.667Z,97814.05
2019-01-14T15:30:32.693Z,97819.48
2019-01-14T15:32:59.340Z,97822.47
2019-01-14T15:35:26.297Z,97806.92
2019-01-14T15:37:52.880Z,97823.98
2019-01-14T15:40:19.579Z,97821.30
2019-01-14T15:42:49.004Z,97830.70
2019-01-14T15:45:19.794Z,97837.04
2019-01-14T15:48:00.229Z,97843.85
2019-01-14T15:50:38.391Z,97842.08
2019-01-14T15:53:15.755Z,97842.34
2019-01-14T15:55:48.312Z,97842.18
2019-01-14T16:01:04.043Z,97849.81
2019-01-14T16:06:16.715Z,97839.84
2019-01-14T16:08:46.532Z,97839.35
2019-01-14T16:11:13.483Z,97833.53
2019-01-14T16:13:49.543Z,97859.87
2019-01-14T16:16:16.717Z,97878.62
2019-01-14T16:18:43.802Z,97901.28
2019-01-14T16:21:10.921Z,97880.39
2019-01-14T16:26:03.467Z,97908.19
2019-01-14T16:28:30.516Z,97920.52
2019-01-14T16:30:57.685Z,97929.10
2019-01-14T16:33:24.753Z,97931.73
2019-01-14T16:35:51.336Z,97941.27
2019-01-14T16:38:18.013Z,97934.30
2019-01-14T16:40:45.042Z,97965.78
2019-01-14T16:43:11.694Z,97961.00
2019-01-14T16:45:38.827Z,97962.72
2019-01-14T16:48:05.436Z,97973.87
2019-01-14T16:50:32.486Z,97980.23
2019-01-14T16:52:59.599Z,97979.73
2019-01-14T16:55:26.613Z,97988.00
2019-01-14T16:57:53.307Z,97992.83
2019-01-14T17:00:20.913Z,97998.61
2019-01-14T17:02:48.613Z,98000.88
2019-01-14T17:05:16.440Z,98003.16
2019-01-14T17:07:45.210Z,98010.47
2019-01-14T17:10:12.341Z,98036.38
2019-01-14T17:12:39.483Z,98036.06
2019-01-14T17:15:06.061Z,98043.97
2019-01-14T17:17:33.288Z,98054.26
2019-01-14T17:20:01.020Z,98046.75
2019-01-14T17:22:29.761Z,98063.66
2019-01-14T17:24:56.008Z,98066.50
2019-01-14T17:27:23.048Z,98068.73
2019-01-14T17:29:49.661Z,98077.73
2019-01-14T17:32:16.341Z,98075.55
2019-01-14T17:34:43.004Z,98084.10
2019-01-14T17:37:09.803Z,98091.98
2019-01-14T17:39:36.505Z,98095.93
2019-01-14T17:42:03.345Z,98110.06
2019-01-14T17:44:30.431Z,98107.89
2019-01-14T17:46:57.517Z,98125.30
2019-01-14T17:49:24.512Z,98120.43
2019-01-14T17:51:51.573Z,98122.08
2019-01-14T17:54:18.687Z,98129.41
2019-01-14T17:56:45.983Z,98127.73
2019-01-14T17:59:12.669Z,98132.22
2019-01-14T18:01:40.840Z,98144.86
2019-01-14T18:04:08.612Z,98147.16
2019-01-14T18:06:35.215Z,98145.02
2019-01-14T18:09:01.896Z,98144.69
2019-01-14T18:11:29.067Z,98162.45
2019-01-14T18:13:56.161Z,98169.84
2019-01-14T18:16:23.228Z,98175.81
2019-01-14T18:18:49.927Z,98164.74
2019-01-14T18:21:16.735Z,98176.23
2019-01-14T18:23:43.875Z,98178.17
2019-01-14T18:26:10.537Z,98183.84
2019-01-14T18:28:37.758Z,98188.63
2019-01-14T18:31:04.796Z,98195.58
2019-01-14T18:33:31.939Z,98200.23
2019-01-14T18:35:59.628Z,98219.25
2019-01-14T18:38:26.814Z,98214.23
2019-01-14T18:40:53.975Z,98225.75
2019-01-14T18:43:23.451Z,98231.92
2019-01-14T18:45:50.455Z,98232.06
2019-01-14T18:48:17.575Z,98243.55
2019-01-14T18:50:44.272Z,98236.47
2019-01-14T18:53:11.437Z,98244.59
2019-01-14T18:55:38.228Z,98253.73
2019-01-14T18:58:05.306Z,98265.88
2019-01-14T19:00:31.967Z,98259.23
2019-01-14T19:02:59.633Z,98274.11
2019-01-14T19:05:26.327Z,98271.42
2019-01-14T19:07:54.188Z,98283.49
2019-01-14T19:10:21.881Z,98289.41
2019-01-14T19:12:49.738Z,98288.37
2019-01-14T19:15:16.863Z,98283.72
2019-01-14T19:17:43.919Z,98290.55
2019-01-14T19:20:10.982Z,98293.22
2019-01-14T19:22:38.478Z,98306.44
2019-01-14T19:25:05.580Z,98299.36
2019-01-14T19:27:32.279Z,98299.28
2019-01-14T19:29:59.063Z,98301.77
2019-01-14T19:32:25.708Z,98310.95
2019-01-14T19:34:52.895Z,98311.52
2019-01-14T19:37:19.739Z,98319.03
2019-01-14T19:39:46.821Z,98321.81
2019-01-14T19:42:13.982Z,98329.97
2019-01-14T19:44:41.191Z,98328.62
2019-01-14T19:47:08.393Z,98327.88
2019-01-14T19:49:36.001Z,98328.76
2019-01-14T19:52:03.189Z,98334.61
2019-01-14T19:54:30.349Z,98326.30
2019-01-14T19:56:57.651Z,98326.59
2019-01-14T19:59:24.851Z,98337.55
2019-01-14T20:01:54.514Z,98342.11
2019-01-14T20:04:21.928Z,98332.34
2019-01-14T20:06:48.591Z,98339.76
2019-01-14T20:09:15.740Z,98337.23
2019-01-14T20:11:43.541Z,98326.45
2019-01-14T20:14:10.261Z,98329.10
2019-01-14T20:16:37.466Z,98327.90
2019-01-14T20:19:04.459Z,98342.38
2019-01-14T20:21:31.545Z,98346.56
2019-01-14T20:23:58.717Z,98334.17
2019-01-14T20:26:25.844Z,98340.20
2019-01-14T20:28:53.648Z,98348.70
2019-01-14T20:31:20.733Z,98347.80
2019-01-14T20:33:47.921Z,98344.87
2019-01-14T20:36:14.943Z,98349.92
2019-01-14T20:38:42.109Z,98362.06
2019-01-14T20:41:08.783Z,98365.83
2019-01-14T20:43:35.844Z,98365.68
2019-01-14T20:46:03.601Z,98370.03
2019-01-14T20:48:31.379Z,98373.38
2019-01-14T20:50:59.112Z,98376.09
2019-01-14T20:53:26.311Z,98373.88
2019-01-14T20:55:54.404Z,98383.11
2019-01-14T20:58:22.304Z,98380.77
2019-01-14T21:00:49.443Z,98396.06
2019-01-14T21:03:17.170Z,98401.47
2019-01-14T21:05:44.346Z,98396.44
2019-01-14T21:08:12.129Z,98401.49
2019-01-14T21:10:39.920Z,98384.46
2019-01-14T21:13:08.263Z,98383.17
2019-01-14T21:15:36.037Z,98390.67
2019-01-14T21:18:03.826Z,98384.77
2019-01-14T21:20:31.289Z,98391.16
2019-01-14T21:22:58.436Z,98393.28
2019-01-14T21:25:26.217Z,98395.02
2019-01-14T21:27:53.398Z,98410.99
2019-01-14T21:30:21.115Z,98405.02
2019-01-14T21:32:48.983Z,98395.71
2019-01-14T21:35:16.027Z,98407.47
2019-01-14T21:37:43.819Z,98406.73
2019-01-14T21:40:10.980Z,98402.45
2019-01-14T21:42:38.012Z,98405.91
2019-01-14T21:45:05.091Z,98410.25
2019-01-14T21:47:32.971Z,98411.91
2019-01-14T21:50:00.661Z,98419.75
2019-01-14T21:52:28.370Z,98442.35
2019-01-14T21:54:56.144Z,98437.94
2019-01-14T21:57:23.853Z,98417.44
2019-01-14T21:59:50.703Z,98412.80
2019-01-14T22:02:18.609Z,98424.97
2019-01-14T22:04:46.341Z,98425.35
2019-01-14T22:07:13.461Z,98435.48
2019-01-14T22:09:41.373Z,98428.34
2019-01-14T22:12:08.331Z,98434.97
2019-01-14T22:14:36.059Z,98431.87
2019-01-14T22:17:03.159Z,98439.25
2019-01-14T22:19:30.856Z,98445.09
2019-01-14T22:21:58.623Z,98453.37
2019-01-14T22:24:26.339Z,98464.30
2019-01-14T22:26:54.070Z,98459.05
2019-01-14T22:29:21.116Z,98465.36
2019-01-14T22:31:48.250Z,98470.53
2019-01-14T22:34:16.028Z,98480.84
2019-01-14T22:36:43.810Z,98467.61
2019-01-14T22:39:11.143Z,98488.27
2019-01-14T22:41:38.229Z,98481.25
2019-01-14T22:44:05.384Z,98487.44
2019-01-14T22:46:32.550Z,98480.22
2019-01-14T22:48:59.630Z,98482.38
2019-01-14T22:51:27.381Z,98486.32
2019-01-14T22:53:55.023Z,98481.25
2019-01-14T22:56:22.671Z,98494.35
2019-01-14T22:58:50.404Z,98493.73
2019-01-14T23:01:17.585Z,98494.62
2019-01-14T23:03:44.702Z,98524.30
2019-01-14T23:06:12.414Z,98495.91
2019-01-14T23:08:40.178Z,98496.38
2019-01-14T23:11:07.278Z,98501.27
2019-01-14T23:13:35.655Z,98501.76
2019-01-14T23:16:02.957Z,98495.95
2019-01-14T23:18:30.718Z,98482.36
2019-01-14T23:20:58.572Z,98487.20
2019-01-14T23:23:25.635Z,98507.44
2019-01-14T23:25:52.633Z,98511.95
2019-01-14T23:28:20.450Z,98490.45
2019-01-14T23:30:47.434Z,98493.93
2019-01-14T23:33:15.158Z,98489.41
2019-01-14T23:35:42.260Z,98502.33
2019-01-14T23:38:09.307Z,98489.95
2019-01-14T23:40:37.032Z,98481.99
2019-01-14T23:43:04.119Z,98486.50
2019-01-14T23:45:31.174Z,98493.50
2019-01-14T23:47:58.234Z,98500.63
2019-01-14T23:50:25.370Z,98479.16
2019-01-14T23:52:53.074Z,98499.31
2019-01-14T23:55:20.728Z,98493.58
2019-01-14T23:57:48.501Z,98492.48
